Аэропорт: Курумоч. Самара

ICAO: UWWW

METAR:
2021-07-28 14:30:00
UWWW 281430Z 32006MPS 9999 FEW033 26/07 Q1013 R33/CLRD60 NOSIG RMK QFE749/0999
METAR:
2021-07-28 10:51:00
TAF UWWW 281051Z 2812/2912 36003MPS 9999 SCT030 TX27/2911Z TN12/2901Z TEMPO 2812/2815 33008G14MPS -TSRA BKN016CB BECMG 2820/2822 22003MPS TEMPO 2909/2912 17009G17MPS -TSRA BKN016CB